Forest Hills, NY (11375)

2:11 PM EDT on May 27, 2015 (GMT -0400)
Meadow Lake | | Change Station
CLOSE
Current Station
Personal Weather Station
Location: New York, NY
Elevation: -10 ft
Nearby Weather Stations

Elev -10 ft 40.73 °N, 73.84 °W | Updated 31 minutes ago

Partly Cloudy
Partly Cloudy
75.9 °F
Feels Like 77 °F
N
7.8
Wind Variable Wind from SSW
Gusts 14.1 mph

Today
High -- | Low -- °F
--% Chance of Precip.
Yesterday
High -- | Low -- °F
Precip. -- in
5:29 AM 8:16 PM
Waxing Gibbous, 69% visible
Pressure 30.14 in
Visibility 10.0 miles
Clouds Few 3800 ft
Scattered Clouds 25000 ft
Heat Index 77 °F
Dew Point 67 °F
Humidity 74%
Rainfall -999.00 in
Snow Depth Not available.
UV 9 out of 12
Pollen 4.90 out of 12
Air Quality Not available.
Flu Activity Widespread
METAR KLGA 271751Z 15014KT 10SM FEW038 SCT250 26/18 A3014 RMK AO2 SLP206 T02610178 10272 20217 58009

More Conditions Fewer Conditions

Pressure 30.14 in
Visibility 10.0 miles
Clouds Few 3800 ft
Scattered Clouds 25000 ft
Heat Index 77 °F
Dew Point 67 °F
Humidity 74%
Rainfall -999.00 in
Snow Depth Not available.
UV 9 out of 12
Pollen 4.90 out of 12
Air Quality Not available.
Flu Activity Widespread
METAR KLGA 271751Z 15014KT 10SM FEW038 SCT250 26/18 A3014 RMK AO2 SLP206 T02610178 10272 20217 58009

More Conditions Fewer Conditions

10-Day Weather Forecast

Almanac

Astronomy

May. 27, 2015 Rise Set
Actual Time
Civil Twilight
Nautical Twilight
Astronomical Twilight
Moon
Length of Visible Light
Length of Day
Tomorrow will be .
, % of the Moon is Illuminated

Today's Extremes

State Highs State Lows

Community

WunderPhotos

Upload Photos

1,824,744 photos uploaded!

WunderBlogs® & News

Nearby

Air Quality

  Air Quality AQ Index Pollutant
Not available.

Snow Depth

Station Depth Elevation

Earthquake Activity

City Distance Mag. Time & Date
Minimum magnitude displayed is 2.5.

Coastal Water Temperatures

Place Temperature

Stations

Nearby Weather Stations

Station Location Temp. Windchill Dew Point Humidity Wind Precip. Elev Updated Type